createdAt,value
2019-05-23T00:02:32.858Z,44.46
2019-05-23T00:05:12.500Z,45.10
2019-05-23T00:07:44.014Z,49.00
2019-05-23T00:10:20.202Z,48.50
2019-05-23T00:13:01.115Z,43.37
2019-05-23T00:15:35.653Z,54.03
2019-05-23T00:18:06.360Z,45.43
2019-05-23T00:20:42.868Z,42.85
2019-05-23T00:23:15.457Z,46.23
2019-05-23T00:25:45.381Z,51.17
2019-05-23T00:28:17.316Z,47.27
2019-05-23T00:30:57.621Z,54.63
2019-05-23T00:33:28.837Z,50.33
2019-05-23T00:35:59.372Z,49.97
2019-05-23T00:38:30.199Z,51.13
2019-05-23T00:41:00.351Z,52.23
2019-05-23T00:43:31.570Z,51.43
2019-05-23T00:46:02.584Z,46.88
2019-05-23T00:48:33.870Z,46.03
2019-05-23T00:51:05.242Z,49.07
2019-05-23T00:53:38.912Z,51.90
2019-05-23T00:56:09.779Z,50.20
2019-05-23T00:58:41.485Z,55.47
2019-05-23T01:01:13.439Z,55.00
2019-05-23T01:03:44.389Z,54.00
2019-05-23T01:06:16.035Z,49.07
2019-05-23T01:08:46.525Z,52.57
2019-05-23T01:11:17.436Z,49.73
2019-05-23T01:13:47.328Z,48.57
2019-05-23T01:16:18.872Z,47.58
2019-05-23T01:18:48.473Z,49.87
2019-05-23T01:21:38.905Z,51.05
2019-05-23T01:24:32.583Z,47.13
2019-05-23T01:27:02.421Z,48.70
2019-05-23T01:29:40.221Z,47.60
2019-05-23T01:32:16.100Z,44.53
2019-05-23T01:34:46.858Z,50.17
2019-05-23T01:37:18.566Z,48.45
2019-05-23T01:39:50.149Z,46.23
2019-05-23T01:42:20.535Z,49.60
2019-05-23T01:44:50.229Z,46.73
2019-05-23T01:47:20.949Z,50.17
2019-05-23T01:49:51.788Z,51.27
2019-05-23T01:52:24.461Z,59.95
2019-05-23T01:54:54.324Z,70.93
2019-05-23T01:57:24.564Z,57.50
2019-05-23T02:00:08.923Z,56.20
2019-05-23T02:02:27.282Z,53.00
2019-05-23T02:05:02.548Z,50.13
2019-05-23T02:07:42.072Z,42.35
2019-05-23T02:10:13.097Z,42.83
2019-05-23T02:12:49.162Z,45.33
2019-05-23T02:15:19.441Z,47.70
2019-05-23T02:17:54.119Z,48.53
2019-05-23T02:20:25.149Z,42.60
2019-05-23T02:22:56.210Z,46.33
2019-05-23T02:25:26.411Z,47.78
2019-05-23T02:27:56.869Z,46.77
2019-05-23T02:30:34.535Z,42.47
2019-05-23T02:33:06.539Z,48.13
2019-05-23T02:35:37.000Z,43.87
2019-05-23T02:38:28.752Z,44.07
2019-05-23T02:41:17.414Z,47.00
2019-05-23T02:43:53.554Z,50.37
2019-05-23T02:46:30.494Z,47.93
2019-05-23T02:49:04.234Z,42.67
2019-05-23T02:51:37.079Z,57.03
2019-05-23T02:54:11.234Z,44.27
2019-05-23T02:56:41.885Z,44.40
2019-05-23T02:59:32.206Z,42.43
2019-05-23T03:02:44.037Z,38.50
2019-05-23T03:05:15.260Z,43.63
2019-05-23T03:07:45.144Z,44.50
2019-05-23T03:10:20.081Z,49.54
2019-05-23T03:12:51.851Z,48.67
2019-05-23T03:15:24.897Z,46.10
2019-05-23T03:18:04.108Z,47.70
2019-05-23T03:20:36.553Z,45.77
2019-05-23T03:23:12.220Z,44.03
2019-05-23T03:26:20.113Z,51.40
2019-05-23T03:28:51.217Z,46.03
2019-05-23T03:31:33.403Z,48.57
2019-05-23T03:34:04.190Z,44.27
2019-05-23T03:36:33.561Z,57.10
2019-05-23T03:39:04.164Z,55.40
2019-05-23T03:41:40.461Z,42.53
2019-05-23T03:44:14.196Z,45.13
2019-05-23T03:46:50.000Z,54.10
2019-05-23T03:49:21.480Z,48.30
2019-05-23T03:51:56.986Z,52.73
2019-05-23T03:54:27.728Z,51.33
2019-05-23T03:56:57.183Z,55.10
2019-05-23T03:59:31.022Z,54.00
2019-05-23T04:02:02.262Z,48.63
2019-05-23T04:04:32.201Z,55.50
2019-05-23T04:07:03.001Z,61.20
2019-05-23T04:09:34.821Z,50.50
2019-05-23T04:12:07.015Z,49.57
2019-05-23T04:14:42.768Z,48.27
2019-05-23T04:17:13.291Z,56.73
2019-05-23T04:19:43.185Z,59.10
2019-05-23T04:22:12.560Z,57.93
2019-05-23T04:24:43.431Z,63.80
2019-05-23T04:27:17.390Z,49.20
2019-05-23T04:29:49.245Z,44.77
2019-05-23T04:32:20.067Z,43.60
2019-05-23T04:34:49.800Z,50.70
2019-05-23T04:37:23.836Z,54.83
2019-05-23T04:39:53.549Z,54.00
2019-05-23T04:42:23.002Z,41.00
2019-05-23T04:44:54.960Z,44.03
2019-05-23T04:47:24.741Z,41.00
2019-05-23T04:49:54.826Z,43.90
2019-05-23T04:52:25.498Z,43.87
2019-05-23T04:54:55.210Z,34.93
2019-05-23T04:57:26.886Z,35.50
2019-05-23T04:59:56.322Z,42.70
2019-05-23T05:02:27.280Z,35.63
2019-05-23T05:04:57.904Z,58.83
2019-05-23T05:07:27.526Z,34.27
2019-05-23T05:10:02.040Z,38.10
2019-05-23T05:12:32.630Z,35.10
2019-05-23T05:15:02.063Z,36.23
2019-05-23T05:17:32.594Z,36.43
2019-05-23T05:20:02.475Z,37.00
2019-05-23T05:22:32.197Z,40.90
2019-05-23T05:25:04.499Z,37.63
2019-05-23T05:27:35.077Z,38.80
2019-05-23T05:30:05.757Z,42.43
2019-05-23T05:32:44.630Z,43.10
2019-05-23T05:35:07.973Z,40.43
2019-05-23T05:37:44.521Z,35.50
2019-05-23T05:40:15.430Z,40.20
2019-05-23T05:42:48.316Z,42.53
2019-05-23T05:45:18.482Z,35.68
2019-05-23T05:47:50.783Z,33.23
2019-05-23T05:50:24.932Z,32.66
2019-05-23T05:52:54.586Z,28.20
2019-05-23T05:55:24.423Z,30.32
2019-05-23T05:57:59.644Z,26.87
2019-05-23T06:00:55.086Z,25.37
2019-05-23T06:03:29.306Z,24.93
2019-05-23T06:06:24.446Z,26.50
2019-05-23T06:08:57.305Z,25.47
2019-05-23T06:11:33.439Z,24.35
2019-05-23T06:14:09.271Z,26.23
2019-05-23T06:16:44.030Z,27.80
2019-05-23T06:19:20.157Z,23.80
2019-05-23T06:21:58.887Z,23.37
2019-05-23T06:24:46.932Z,22.10
2019-05-23T06:27:15.143Z,25.07
2019-05-23T06:29:52.125Z,25.20
2019-05-23T06:32:29.353Z,20.80
2019-05-23T06:35:05.508Z,19.60
2019-05-23T06:37:37.592Z,21.73
2019-05-23T06:40:13.212Z,21.40
2019-05-23T06:42:50.731Z,20.80
2019-05-23T06:45:31.269Z,20.02
2019-05-23T06:48:06.830Z,19.40
2019-05-23T06:50:41.905Z,19.73
2019-05-23T06:53:12.640Z,18.30
2019-05-23T06:55:42.038Z,18.70
2019-05-23T06:58:11.937Z,16.87
2019-05-23T07:00:47.149Z,16.63
2019-05-23T07:03:17.100Z,16.97
2019-05-23T07:05:47.611Z,15.57
2019-05-23T07:08:20.586Z,15.95
2019-05-23T07:10:50.513Z,16.13
2019-05-23T07:13:20.702Z,17.57
2019-05-23T07:15:52.037Z,13.03
2019-05-23T07:18:21.514Z,14.80
2019-05-23T07:20:51.189Z,14.83
2019-05-23T07:23:21.006Z,11.90
2019-05-23T07:25:52.291Z,12.83
2019-05-23T07:28:21.703Z,12.80
2019-05-23T07:30:51.333Z,11.85
2019-05-23T07:33:21.108Z,13.33
2019-05-23T07:35:50.497Z,31.10
2019-05-23T07:38:27.939Z,11.97
2019-05-23T07:41:03.412Z,10.87
2019-05-23T07:43:32.908Z,10.10
2019-05-23T07:46:03.465Z,11.07
2019-05-23T07:48:33.357Z,11.30
2019-05-23T07:51:03.051Z,11.20
2019-05-23T07:53:50.371Z,10.47
2019-05-23T07:56:21.650Z,10.27
2019-05-23T07:58:58.273Z,9.78
2019-05-23T08:01:33.100Z,9.48
2019-05-23T08:04:19.785Z,8.20
2019-05-23T08:06:35.825Z,9.35
2019-05-23T08:09:15.604Z,9.73
2019-05-23T08:11:44.954Z,9.77
2019-05-23T08:14:15.470Z,11.00
2019-05-23T08:16:45.155Z,10.27
2019-05-23T08:19:19.233Z,8.10
2019-05-23T08:21:46.485Z,7.60
2019-05-23T08:24:18.291Z,12.30
2019-05-23T08:26:47.734Z,7.70
2019-05-23T08:29:26.670Z,9.23
2019-05-23T08:31:51.329Z,9.28
2019-05-23T08:34:37.822Z,10.50
2019-05-23T08:36:59.498Z,10.33
2019-05-23T08:39:30.519Z,11.57
2019-05-23T08:42:00.206Z,11.20
2019-05-23T08:44:34.479Z,12.43
2019-05-23T08:47:10.683Z,13.67
2019-05-23T08:49:40.405Z,13.77
2019-05-23T08:52:10.841Z,11.87
2019-05-23T08:54:41.269Z,11.13
2019-05-23T08:57:11.054Z,15.10
2019-05-23T08:59:41.482Z,10.13
2019-05-23T09:02:13.725Z,9.17
2019-05-23T09:05:02.206Z,9.20
2019-05-23T09:07:15.324Z,12.33
2019-05-23T09:09:45.730Z,8.83
2019-05-23T09:12:16.990Z,7.85
2019-05-23T09:14:46.371Z,7.30
2019-05-23T09:17:16.202Z,7.30
2019-05-23T09:19:45.742Z,7.20
2019-05-23T09:22:17.290Z,7.50
2019-05-23T09:24:48.659Z,6.70
2019-05-23T09:27:18.023Z,7.47
2019-05-23T09:29:47.665Z,7.60
2019-05-23T09:32:17.654Z,8.53
2019-05-23T09:34:47.314Z,8.80
2019-05-23T09:37:19.377Z,8.20
2019-05-23T09:39:50.501Z,9.13
2019-05-23T09:42:20.998Z,8.03
2019-05-23T09:44:50.394Z,8.60
2019-05-23T09:47:22.222Z,8.30
2019-05-23T09:49:55.078Z,8.27
2019-05-23T09:52:25.537Z,8.60
2019-05-23T09:54:55.773Z,8.77
2019-05-23T09:57:32.474Z,8.27
2019-05-23T10:00:01.613Z,9.30
2019-05-23T10:02:31.086Z,10.45
2019-05-23T10:05:00.682Z,9.33
2019-05-23T10:07:30.643Z,9.33
2019-05-23T10:10:00.544Z,8.00
2019-05-23T10:12:30.478Z,8.20
2019-05-23T10:15:00.749Z,9.87
2019-05-23T10:17:30.720Z,9.70
2019-05-23T10:20:14.670Z,10.10
2019-05-23T10:22:44.766Z,9.60
2019-05-23T10:25:17.966Z,9.88
2019-05-23T10:27:47.987Z,8.37
2019-05-23T10:30:19.333Z,9.33
2019-05-23T10:32:48.730Z,10.03
2019-05-23T10:35:21.744Z,13.30
2019-05-23T10:37:51.881Z,11.08
2019-05-23T10:40:22.801Z,10.20
2019-05-23T10:42:57.583Z,12.53
2019-05-23T10:45:28.585Z,15.28
2019-05-23T10:47:58.545Z,12.20
2019-05-23T10:50:43.525Z,14.53
2019-05-23T10:53:01.359Z,12.53
2019-05-23T10:55:31.317Z,10.03
2019-05-23T10:58:00.818Z,13.73
2019-05-23T11:00:30.406Z,10.57
2019-05-23T11:03:00.669Z,9.93
2019-05-23T11:05:35.297Z,13.58
2019-05-23T11:08:06.407Z,12.77
2019-05-23T11:10:36.747Z,11.37
2019-05-23T11:13:07.068Z,11.37
2019-05-23T11:15:36.770Z,11.33
2019-05-23T11:18:07.983Z,12.07
2019-05-23T11:20:37.401Z,10.67
2019-05-23T11:23:07.284Z,10.03
2019-05-23T11:25:41.545Z,12.47
2019-05-23T11:28:15.561Z,11.07
2019-05-23T11:30:51.937Z,14.30
2019-05-23T11:33:24.188Z,10.30
2019-05-23T11:35:59.213Z,10.40
2019-05-23T11:38:32.978Z,13.53
2019-05-23T11:41:04.061Z,10.80
2019-05-23T11:43:33.454Z,11.77
2019-05-23T11:46:11.562Z,10.43
2019-05-23T11:48:42.637Z,14.10
2019-05-23T11:51:12.041Z,11.53
2019-05-23T11:53:45.291Z,14.90
2019-05-23T11:56:19.905Z,9.67
2019-05-23T11:58:49.309Z,9.93
2019-05-23T12:01:23.409Z,9.43
2019-05-23T12:04:03.348Z,10.67
2019-05-23T12:06:55.568Z,14.53
2019-05-23T12:09:17.446Z,9.20
2019-05-23T12:11:49.337Z,10.17
2019-05-23T12:14:18.871Z,9.97
2019-05-23T12:16:49.356Z,9.90
2019-05-23T12:19:19.138Z,8.97
2019-05-23T12:21:49.777Z,10.90
2019-05-23T12:24:19.220Z,10.00
2019-05-23T12:26:49.872Z,9.20
2019-05-23T12:29:20.015Z,9.50
2019-05-23T12:31:50.599Z,9.33
2019-05-23T12:34:20.457Z,10.63
2019-05-23T12:36:52.506Z,9.07
2019-05-23T12:39:21.901Z,11.40
2019-05-23T12:41:52.206Z,9.20
2019-05-23T12:44:27.300Z,8.10
2019-05-23T12:46:59.299Z,10.60
2019-05-23T12:49:42.716Z,7.87
2019-05-23T12:52:13.187Z,9.00
2019-05-23T12:54:43.961Z,10.13
2019-05-23T12:57:14.760Z,7.43
2019-05-23T12:59:52.839Z,7.53
2019-05-23T13:02:25.428Z,8.08
2019-05-23T13:04:55.457Z,7.57
2019-05-23T13:07:35.547Z,7.40
2019-05-23T13:09:56.762Z,10.20
2019-05-23T13:12:27.026Z,8.60
2019-05-23T13:14:58.927Z,6.73
2019-05-23T13:17:28.481Z,8.95
2019-05-23T13:19:58.400Z,7.07
2019-05-23T13:22:29.655Z,9.23
2019-05-23T13:24:59.714Z,7.50
2019-05-23T13:27:31.352Z,7.55
2019-05-23T13:30:03.656Z,9.30
2019-05-23T13:32:33.309Z,7.25
2019-05-23T13:35:03.013Z,8.17
2019-05-23T13:37:32.856Z,11.70
2019-05-23T13:40:02.361Z,6.83
2019-05-23T13:42:35.164Z,7.28
2019-05-23T13:45:08.360Z,8.53
2019-05-23T13:47:41.331Z,7.63
2019-05-23T13:50:11.694Z,9.03
2019-05-23T13:52:45.635Z,8.00
2019-05-23T13:55:20.405Z,7.15
2019-05-23T13:57:51.600Z,6.97
2019-05-23T14:00:26.431Z,5.92
2019-05-23T14:02:55.774Z,10.47
2019-05-23T14:05:26.206Z,19.17
2019-05-23T14:08:10.757Z,10.17
2019-05-23T14:10:31.712Z,12.43
2019-05-23T14:13:05.867Z,7.70
2019-05-23T14:15:40.466Z,10.47
2019-05-23T14:18:13.731Z,7.50
2019-05-23T14:20:46.853Z,7.92
2019-05-23T14:23:27.709Z,7.67
2019-05-23T14:26:02.573Z,9.63
2019-05-23T14:28:35.151Z,8.27
2019-05-23T14:31:16.920Z,7.77
2019-05-23T14:34:01.606Z,8.37
2019-05-23T14:36:52.177Z,7.40
2019-05-23T14:39:38.060Z,9.28
2019-05-23T14:42:30.627Z,9.00
2019-05-23T14:45:00.119Z,6.23
2019-05-23T14:47:47.292Z,10.10
2019-05-23T14:50:55.266Z,8.55
2019-05-23T14:53:26.628Z,15.37
2019-05-23T14:55:57.124Z,8.73
2019-05-23T14:58:26.836Z,7.97
2019-05-23T15:00:56.981Z,8.93
2019-05-23T15:03:30.511Z,7.23
2019-05-23T15:06:01.878Z,7.10
2019-05-23T15:08:49.785Z,6.60
2019-05-23T15:11:02.540Z,7.43
2019-05-23T15:13:32.584Z,6.00
2019-05-23T15:16:02.016Z,9.13
2019-05-23T15:18:35.572Z,5.90
2019-05-23T15:21:05.143Z,9.90
2019-05-23T15:23:34.567Z,6.92
2019-05-23T15:26:21.106Z,5.17
2019-05-23T15:28:36.249Z,4.72
2019-05-23T15:31:10.654Z,7.47
2019-05-23T15:33:45.642Z,5.78
2019-05-23T15:36:17.430Z,5.92
2019-05-23T15:38:54.377Z,6.63
2019-05-23T15:41:24.573Z,5.55
2019-05-23T15:43:56.176Z,7.80
2019-05-23T15:46:26.685Z,6.47
2019-05-23T15:48:57.406Z,6.53
2019-05-23T15:51:33.606Z,7.03
2019-05-23T15:54:11.032Z,6.20
2019-05-23T15:57:17.691Z,4.90
2019-05-23T16:00:11.252Z,7.15
2019-05-23T16:02:47.607Z,8.37
2019-05-23T16:05:18.868Z,7.15
2019-05-23T16:07:48.259Z,5.47
2019-05-23T16:10:20.020Z,4.75
2019-05-23T16:12:49.624Z,7.47
2019-05-23T16:15:19.108Z,5.70
2019-05-23T16:17:49.826Z,4.40
2019-05-23T16:20:22.984Z,5.05
2019-05-23T16:22:52.537Z,4.70
2019-05-23T16:25:23.299Z,5.42
2019-05-23T16:27:53.481Z,7.73
2019-05-23T16:30:23.810Z,7.67
2019-05-23T16:32:58.611Z,11.37
2019-05-23T16:35:33.969Z,7.43
2019-05-23T16:38:04.041Z,4.67
2019-05-23T16:40:33.824Z,5.83
2019-05-23T16:43:04.157Z,5.07
2019-05-23T16:45:36.117Z,5.45
2019-05-23T16:48:06.010Z,7.97
2019-05-23T16:50:37.081Z,7.60
2019-05-23T16:53:06.603Z,5.40
2019-05-23T16:56:03.502Z,5.90
2019-05-23T16:58:54.905Z,6.40
2019-05-23T17:01:34.728Z,5.22
2019-05-23T17:04:22.341Z,5.67
2019-05-23T17:07:19.705Z,6.83
2019-05-23T17:10:08.598Z,7.50
2019-05-23T17:12:51.052Z,6.33
2019-05-23T17:15:48.090Z,8.48
2019-05-23T17:18:44.062Z,5.20
2019-05-23T17:21:23.837Z,6.20
2019-05-23T17:24:09.813Z,5.93
2019-05-23T17:26:48.389Z,6.83
2019-05-23T17:29:27.998Z,13.40
2019-05-23T17:31:58.066Z,7.40
2019-05-23T17:34:27.427Z,5.00
2019-05-23T17:36:56.809Z,6.80
2019-05-23T17:39:28.165Z,7.63
2019-05-23T17:42:03.888Z,11.03
2019-05-23T17:44:39.841Z,9.07
2019-05-23T17:47:09.216Z,8.10
2019-05-23T17:49:38.625Z,9.13
2019-05-23T17:52:09.449Z,7.22
2019-05-23T17:54:39.527Z,8.73
2019-05-23T17:57:09.766Z,7.37
2019-05-23T17:59:43.435Z,8.20
2019-05-23T18:02:13.168Z,9.17
2019-05-23T18:04:43.889Z,8.27
2019-05-23T18:07:14.586Z,7.03
2019-05-23T18:09:44.690Z,8.73
2019-05-23T18:12:20.496Z,8.60
2019-05-23T18:14:50.266Z,8.47
2019-05-23T18:17:20.213Z,8.40
2019-05-23T18:19:50.041Z,7.80
2019-05-23T18:22:21.767Z,16.80
2019-05-23T18:24:59.699Z,8.63
2019-05-23T18:27:36.062Z,7.90
2019-05-23T18:30:08.448Z,9.40
2019-05-23T18:32:37.981Z,7.27
2019-05-23T18:35:09.208Z,8.20
2019-05-23T18:37:38.852Z,8.47
2019-05-23T18:40:08.417Z,6.70
2019-05-23T18:42:38.391Z,13.07
2019-05-23T18:45:12.098Z,8.90
2019-05-23T18:47:42.791Z,8.33
2019-05-23T18:50:13.169Z,7.87
2019-05-23T18:52:43.489Z,7.43
2019-05-23T18:55:13.286Z,8.10
2019-05-23T18:57:43.668Z,8.30
2019-05-23T19:00:13.516Z,7.08
2019-05-23T19:02:43.333Z,10.63
2019-05-23T19:05:13.514Z,9.65
2019-05-23T19:07:43.962Z,10.93
2019-05-23T19:10:15.021Z,10.35
2019-05-23T19:12:44.609Z,7.50
2019-05-23T19:15:15.743Z,7.80
2019-05-23T19:17:45.170Z,10.95
2019-05-23T19:20:16.398Z,9.03
2019-05-23T19:22:47.660Z,9.00
2019-05-23T19:25:23.744Z,10.75
2019-05-23T19:27:53.714Z,7.20
2019-05-23T19:30:26.024Z,12.78
2019-05-23T19:32:59.773Z,12.83
2019-05-23T19:35:33.928Z,7.85
2019-05-23T19:38:05.077Z,8.37
2019-05-23T19:40:35.846Z,20.00
2019-05-23T19:43:06.712Z,58.13
2019-05-23T19:45:36.706Z,41.58
2019-05-23T19:48:07.261Z,21.67
2019-05-23T19:50:38.445Z,19.83
2019-05-23T19:53:08.960Z,15.27
2019-05-23T19:55:40.336Z,16.10
2019-05-23T19:58:12.370Z,14.40
2019-05-23T20:00:46.944Z,16.73
2019-05-23T20:03:28.716Z,12.35
2019-05-23T20:05:59.552Z,10.03
2019-05-23T20:08:33.987Z,11.10
2019-05-23T20:11:03.685Z,6.80
2019-05-23T20:13:36.545Z,8.53
2019-05-23T20:16:08.661Z,7.90
2019-05-23T20:18:39.788Z,10.15
2019-05-23T20:21:14.227Z,8.40
2019-05-23T20:23:44.445Z,10.97
2019-05-23T20:26:16.146Z,10.70
2019-05-23T20:28:46.821Z,8.00
2019-05-23T20:31:18.102Z,8.10
2019-05-23T20:33:47.981Z,10.77
2019-05-23T20:36:21.153Z,9.70
2019-05-23T20:38:51.831Z,8.60
2019-05-23T20:41:24.646Z,11.93
2019-05-23T20:43:57.739Z,8.23
2019-05-23T20:46:27.692Z,9.83
2019-05-23T20:48:57.333Z,10.78
2019-05-23T20:51:26.829Z,9.80
2019-05-23T20:53:56.920Z,11.30
2019-05-23T20:56:27.596Z,9.07
2019-05-23T20:58:58.033Z,8.70
2019-05-23T21:01:34.838Z,9.55
2019-05-23T21:04:06.070Z,10.90
2019-05-23T21:06:41.114Z,8.80
2019-05-23T21:09:15.966Z,11.97
2019-05-23T21:11:46.265Z,10.60
2019-05-23T21:14:19.013Z,11.50
2019-05-23T21:16:48.808Z,11.70
2019-05-23T21:19:21.383Z,10.77
2019-05-23T21:21:51.340Z,11.23
2019-05-23T21:24:20.954Z,9.53
2019-05-23T21:26:50.929Z,9.97
2019-05-23T21:29:21.834Z,11.60
2019-05-23T21:31:51.254Z,18.20
2019-05-23T21:34:22.300Z,14.73
2019-05-23T21:36:53.600Z,14.60
2019-05-23T21:39:23.483Z,13.15
2019-05-23T21:41:53.983Z,12.57
2019-05-23T21:44:30.880Z,11.80
2019-05-23T21:47:01.623Z,11.03
2019-05-23T21:49:51.227Z,12.90
2019-05-23T21:52:20.909Z,13.47
2019-05-23T21:54:50.334Z,12.93
2019-05-23T21:57:21.762Z,10.10
2019-05-23T21:59:51.543Z,13.38
2019-05-23T22:02:29.156Z,12.67
2019-05-23T22:05:12.248Z,13.20
2019-05-23T22:07:44.900Z,10.17
2019-05-23T22:10:15.024Z,13.30
2019-05-23T22:12:45.732Z,10.57
2019-05-23T22:15:19.905Z,12.95
2019-05-23T22:17:50.482Z,12.07
2019-05-23T22:20:23.574Z,10.80
2019-05-23T22:22:53.050Z,10.67
2019-05-23T22:25:35.392Z,10.17
2019-05-23T22:28:05.808Z,9.67
2019-05-23T22:30:36.563Z,9.83
2019-05-23T22:33:06.861Z,9.70
2019-05-23T22:35:36.989Z,12.00
2019-05-23T22:38:10.123Z,12.33
2019-05-23T22:40:40.483Z,10.83
2019-05-23T22:43:20.929Z,10.03
2019-05-23T22:45:47.095Z,12.57
2019-05-23T22:48:19.097Z,13.58
2019-05-23T22:50:50.071Z,213.87
2019-05-23T22:53:21.015Z,12.77
2019-05-23T22:55:52.156Z,13.53
2019-05-23T22:58:23.980Z,10.88
2019-05-23T23:00:53.680Z,11.07
2019-05-23T23:03:24.739Z,16.70
2019-05-23T23:05:54.188Z,12.63
2019-05-23T23:08:24.899Z,12.30
2019-05-23T23:10:55.447Z,11.70
2019-05-23T23:13:38.256Z,14.70
2019-05-23T23:15:58.987Z,12.60
2019-05-23T23:18:29.053Z,15.27
2019-05-23T23:21:00.209Z,12.60
2019-05-23T23:23:30.558Z,12.53
2019-05-23T23:26:00.564Z,13.20
2019-05-23T23:28:30.809Z,10.90
2019-05-23T23:31:01.124Z,14.83
2019-05-23T23:33:31.329Z,12.23
2019-05-23T23:36:00.704Z,11.27
2019-05-23T23:38:30.308Z,13.32
2019-05-23T23:40:59.784Z,13.80
2019-05-23T23:43:29.293Z,12.70
2019-05-23T23:46:16.591Z,12.43
2019-05-23T23:49:06.260Z,13.30
2019-05-23T23:51:53.093Z,17.67
2019-05-23T23:54:40.181Z,11.03
2019-05-23T23:57:28.384Z,16.60
